createdAt,value
2023-01-12T00:01:54.851Z,100954.66
2023-01-12T00:04:22.303Z,100962.13
2023-01-12T00:06:49.390Z,100963.59
2023-01-12T00:09:16.494Z,100959.78
2023-01-12T00:11:44.120Z,100965.97
2023-01-12T00:14:11.225Z,100966.97
2023-01-12T00:16:38.755Z,100956.00
2023-01-12T00:19:10.811Z,100962.00
2023-01-12T00:22:04.624Z,100962.87
2023-01-12T00:24:35.484Z,100953.53
2023-01-12T00:27:05.360Z,100950.09
2023-01-12T00:29:32.968Z,100954.59
2023-01-12T00:32:00.903Z,100952.13
2023-01-12T00:34:29.716Z,100964.66
2023-01-12T00:36:57.710Z,100968.13
2023-01-12T00:39:24.770Z,100966.25
2023-01-12T00:42:10.775Z,100968.09
2023-01-12T00:44:57.117Z,100967.31
2023-01-12T00:47:24.243Z,100956.94
2023-01-12T00:49:51.879Z,100955.81
2023-01-12T00:52:30.391Z,100968.03
2023-01-12T00:55:00.369Z,100969.34
2023-01-12T00:57:28.492Z,100968.72
2023-01-12T00:59:58.262Z,100963.53
2023-01-12T01:02:27.227Z,100982.22
2023-01-12T01:04:54.568Z,100975.25
2023-01-12T01:07:21.956Z,100993.94
2023-01-12T01:09:49.913Z,100986.97
2023-01-12T01:12:17.172Z,100989.28
2023-01-12T01:14:44.229Z,100984.91
2023-01-12T01:17:11.603Z,101003.91
2023-01-12T01:19:38.703Z,101001.16
2023-01-12T01:22:05.826Z,100999.50
2023-01-12T01:24:33.283Z,101000.16
2023-01-12T01:27:00.427Z,101004.31
2023-01-12T01:29:27.557Z,101009.41
2023-01-12T01:31:55.513Z,101002.56
2023-01-12T01:34:23.974Z,101002.56
2023-01-12T01:36:51.159Z,100999.25
2023-01-12T01:39:18.606Z,101003.72
2023-01-12T01:41:45.803Z,101004.50
2023-01-12T01:44:31.008Z,101012.22
2023-01-12T01:47:07.362Z,101019.03
2023-01-12T01:49:34.332Z,101017.16
2023-01-12T01:52:19.788Z,101008.59
2023-01-12T01:54:53.304Z,101020.53
2023-01-12T01:57:21.068Z,101021.16
2023-01-12T01:59:51.675Z,101018.59
2023-01-12T02:02:18.886Z,101024.53
2023-01-12T02:04:46.604Z,101024.28
2023-01-12T02:07:14.063Z,101011.28
2023-01-12T02:09:41.342Z,101011.22
2023-01-12T02:12:27.245Z,101014.75
2023-01-12T02:15:14.299Z,101014.81
2023-01-12T02:17:47.033Z,101023.31
2023-01-12T02:20:34.142Z,101024.94
2023-01-12T02:23:10.139Z,101021.44
2023-01-12T02:26:00.937Z,101013.88
2023-01-12T02:28:42.915Z,101013.91
2023-01-12T02:31:23.225Z,101013.28
2023-01-12T02:33:53.266Z,101007.25
2023-01-12T02:36:23.739Z,101016.50
2023-01-12T02:39:00.734Z,101004.38
2023-01-12T02:41:52.031Z,101001.28
2023-01-12T02:44:51.568Z,101006.34
2023-01-12T02:47:44.529Z,101008.03
2023-01-12T02:50:18.130Z,101008.81
2023-01-12T02:52:47.107Z,101019.47
2023-01-12T02:55:16.555Z,101016.03
2023-01-12T02:57:44.030Z,100999.69
2023-01-12T03:00:14.711Z,100995.28
2023-01-12T03:02:41.790Z,100994.13
2023-01-12T03:05:09.531Z,100989.06
2023-01-12T03:07:50.667Z,100993.72
2023-01-12T03:10:23.740Z,100997.31
2023-01-12T03:12:51.737Z,101000.88
2023-01-12T03:15:19.604Z,100995.84
2023-01-12T03:17:57.503Z,101000.16
2023-01-12T03:20:29.272Z,100983.66
2023-01-12T03:23:02.091Z,100993.81
2023-01-12T03:25:31.341Z,101001.28
2023-01-12T03:27:59.828Z,100995.06
2023-01-12T03:30:33.223Z,100992.41
2023-01-12T03:33:00.615Z,100987.34
2023-01-12T03:35:28.417Z,100987.31
2023-01-12T03:37:59.016Z,100999.34
2023-01-12T03:40:35.128Z,100994.94
2023-01-12T03:43:43.834Z,100998.19
2023-01-12T03:46:16.140Z,100993.75
2023-01-12T03:48:48.591Z,100992.94
2023-01-12T03:51:20.575Z,100991.06
2023-01-12T03:53:51.975Z,100996.31
2023-01-12T03:56:20.650Z,101000.69
2023-01-12T03:58:48.840Z,100998.16
2023-01-12T04:01:16.171Z,100993.06
2023-01-12T04:03:43.995Z,100987.97
2023-01-12T04:06:11.192Z,100995.78
2023-01-12T04:08:38.257Z,100990.53
2023-01-12T04:11:25.963Z,100986.25
2023-01-12T04:13:53.347Z,100991.34
2023-01-12T04:16:20.775Z,100995.75
2023-01-12T04:18:47.840Z,100987.19
2023-01-12T04:21:33.663Z,100980.38
2023-01-12T04:24:01.099Z,100984.84
2023-01-12T04:26:28.231Z,100979.78
2023-01-12T04:28:55.379Z,100984.06
2023-01-12T04:31:22.742Z,100991.75
2023-01-12T04:33:49.929Z,100994.34
2023-01-12T04:36:17.050Z,100999.59
2023-01-12T04:38:44.472Z,100993.47
2023-01-12T04:41:11.626Z,100998.75
2023-01-12T04:43:39.956Z,100996.06
2023-01-12T04:46:09.121Z,100994.41
2023-01-12T04:48:39.080Z,100996.97
2023-01-12T04:51:06.431Z,100997.59
2023-01-12T04:53:33.952Z,100995.06
2023-01-12T04:56:06.023Z,100995.78
2023-01-12T04:58:34.951Z,100995.88
2023-01-12T05:01:28.778Z,100994.91
2023-01-12T05:03:58.126Z,100993.69
2023-01-12T05:06:25.306Z,100989.78
2023-01-12T05:09:11.297Z,100999.69
2023-01-12T05:11:39.007Z,101001.69
2023-01-12T05:14:06.099Z,100995.72
2023-01-12T05:16:33.800Z,101005.16
2023-01-12T05:19:01.211Z,101008.41
2023-01-12T05:21:28.377Z,101014.41
2023-01-12T05:23:55.531Z,101018.69
2023-01-12T05:26:22.978Z,101009.13
2023-01-12T05:28:50.531Z,101009.34
2023-01-12T05:31:19.552Z,101013.94
2023-01-12T05:33:49.087Z,101020.16
2023-01-12T05:36:17.215Z,101012.91
2023-01-12T05:38:44.370Z,101011.13
2023-01-12T05:41:14.429Z,101006.37
2023-01-12T05:43:51.458Z,101004.56
2023-01-12T05:46:41.272Z,101010.28
2023-01-12T05:49:11.042Z,101011.53
2023-01-12T05:51:38.477Z,101021.94
2023-01-12T05:54:05.591Z,101021.88
2023-01-12T05:56:33.952Z,101007.34
2023-01-12T05:59:02.571Z,101004.19
2023-01-12T06:01:30.564Z,101006.69
2023-01-12T06:03:59.977Z,100987.81
2023-01-12T06:06:31.161Z,100985.34
2023-01-12T06:09:00.088Z,100982.94
2023-01-12T06:11:46.151Z,100999.72
2023-01-12T06:14:13.738Z,100995.22
2023-01-12T06:16:42.413Z,100996.50
2023-01-12T06:19:12.452Z,101006.22
2023-01-12T06:21:40.750Z,101013.88
2023-01-12T06:24:08.464Z,101013.19
2023-01-12T06:26:35.609Z,101021.75
2023-01-12T06:29:05.478Z,101023.69
2023-01-12T06:31:33.240Z,101022.84
2023-01-12T06:34:00.663Z,101031.31
2023-01-12T06:36:28.153Z,101038.03
2023-01-12T06:38:55.315Z,101043.19
2023-01-12T06:41:40.928Z,101050.13
2023-01-12T06:44:08.430Z,101046.63
2023-01-12T06:46:35.613Z,101052.59
2023-01-12T06:49:02.791Z,101052.59
2023-01-12T06:51:30.282Z,101064.31
2023-01-12T06:53:57.401Z,101062.62
2023-01-12T06:56:24.479Z,101066.19
2023-01-12T06:58:51.928Z,101062.78
2023-01-12T07:01:19.533Z,101068.50
2023-01-12T07:03:46.776Z,101061.25
2023-01-12T07:06:14.519Z,101070.66
2023-01-12T07:08:42.911Z,101071.50
2023-01-12T07:11:12.640Z,101071.56
2023-01-12T07:13:40.104Z,101068.84
2023-01-12T07:16:07.647Z,101065.34
2023-01-12T07:18:35.049Z,101071.25
2023-01-12T07:21:07.031Z,101074.28
2023-01-12T07:23:34.164Z,101075.91
2023-01-12T07:26:01.247Z,101075.50
2023-01-12T07:28:31.208Z,101078.34
2023-01-12T07:31:03.035Z,101084.84
2023-01-12T07:33:31.221Z,101085.47
2023-01-12T07:35:59.790Z,101088.56
2023-01-12T07:38:28.243Z,101093.53
2023-01-12T07:40:59.252Z,101102.38
2023-01-12T07:43:26.511Z,101096.62
2023-01-12T07:45:56.650Z,101109.56
2023-01-12T07:48:25.103Z,101107.78
2023-01-12T07:50:52.583Z,101097.22
2023-01-12T07:53:20.405Z,101099.75
2023-01-12T07:55:47.887Z,101101.19
2023-01-12T07:58:15.111Z,101103.53
2023-01-12T08:00:42.227Z,101100.81
2023-01-12T08:03:12.171Z,101105.63
2023-01-12T08:05:39.918Z,101108.69
2023-01-12T08:08:07.280Z,101118.44
2023-01-12T08:10:35.043Z,101114.38
2023-01-12T08:13:02.385Z,101112.41
2023-01-12T08:15:33.426Z,101113.44
2023-01-12T08:18:05.943Z,101106.34
2023-01-12T08:20:36.891Z,101114.09
2023-01-12T08:23:40.500Z,101112.84
2023-01-12T08:26:14.154Z,101117.00
2023-01-12T08:28:47.615Z,101127.38
2023-01-12T08:31:15.575Z,101129.13
2023-01-12T08:33:43.550Z,101122.91
2023-01-12T08:38:45.868Z,101122.91
2023-01-12T08:41:31.371Z,101127.34
2023-01-12T08:44:03.174Z,101129.03
2023-01-12T08:46:52.112Z,101130.59
2023-01-12T08:49:24.255Z,101132.72
2023-01-12T08:51:52.144Z,101126.44
2023-01-12T08:54:20.706Z,101127.91
2023-01-12T08:56:49.285Z,101123.94
2023-01-12T08:59:16.507Z,101126.22
2023-01-12T09:01:44.826Z,101128.47
2023-01-12T09:04:12.106Z,101124.56
2023-01-12T09:06:41.593Z,101126.97
2023-01-12T09:09:12.054Z,101130.53
2023-01-12T09:11:40.763Z,101130.59
2023-01-12T09:14:08.110Z,101135.91
2023-01-12T09:16:36.211Z,101121.13
2023-01-12T09:19:03.653Z,101122.88
2023-01-12T09:21:31.527Z,101124.06
2023-01-12T09:23:59.392Z,101124.78
2023-01-12T09:26:34.197Z,101123.59
2023-01-12T09:29:04.225Z,101126.81
2023-01-12T09:31:32.565Z,101130.16
2023-01-12T09:33:59.884Z,101128.19
2023-01-12T09:36:33.299Z,101133.75
2023-01-12T09:39:02.062Z,101136.25
2023-01-12T09:41:55.892Z,101131.81
2023-01-12T09:44:47.365Z,101124.69
2023-01-12T09:47:39.790Z,101129.28
2023-01-12T09:50:23.601Z,101117.78
2023-01-12T09:52:57.072Z,101121.37
2023-01-12T09:55:26.544Z,101112.91
2023-01-12T09:58:15.403Z,101112.06
2023-01-12T10:00:42.532Z,101115.34
2023-01-12T10:03:10.005Z,101100.34
2023-01-12T10:05:52.330Z,101103.09
2023-01-12T10:08:22.326Z,101102.22
2023-01-12T10:11:00.186Z,101100.09
2023-01-12T10:13:47.198Z,101101.63
2023-01-12T10:16:24.616Z,101104.94
2023-01-12T10:18:57.229Z,101103.75
2023-01-12T10:21:25.463Z,101103.56
2023-01-12T10:23:53.958Z,101086.19
2023-01-12T10:26:25.735Z,101090.94
2023-01-12T10:28:55.567Z,101095.00
2023-01-12T10:31:25.176Z,101099.41
2023-01-12T10:34:11.078Z,101097.59
2023-01-12T10:36:47.147Z,101096.03
2023-01-12T10:39:35.697Z,101094.34
2023-01-12T10:42:37.318Z,101094.44
2023-01-12T10:45:16.424Z,101095.13
2023-01-12T10:47:45.270Z,101089.16
2023-01-12T10:50:23.601Z,101086.38
2023-01-12T10:53:03.162Z,101081.81
2023-01-12T10:55:32.897Z,101079.22
2023-01-12T10:58:00.459Z,101072.06
2023-01-12T11:00:28.598Z,101076.12
2023-01-12T11:02:56.406Z,101069.22
2023-01-12T11:05:38.568Z,101072.50
2023-01-12T11:08:28.352Z,101074.44
2023-01-12T11:10:55.515Z,101074.50
2023-01-12T11:13:32.986Z,101061.31
2023-01-12T11:16:21.345Z,101068.78
2023-01-12T11:18:59.732Z,101057.44
2023-01-12T11:21:30.830Z,101045.22
2023-01-12T11:24:13.815Z,101053.97
2023-01-12T11:26:50.954Z,101048.78
2023-01-12T11:29:24.507Z,101053.06
2023-01-12T11:31:56.058Z,101053.78
2023-01-12T11:34:25.675Z,101039.84
2023-01-12T11:36:54.618Z,101033.87
2023-01-12T11:39:26.411Z,101043.94
2023-01-12T11:42:18.392Z,101039.88
2023-01-12T11:45:10.230Z,101036.94
2023-01-12T11:47:42.016Z,101031.47
2023-01-12T11:50:21.882Z,101030.63
2023-01-12T11:52:49.572Z,101024.31
2023-01-12T11:55:24.615Z,101022.75
2023-01-12T11:58:14.260Z,101025.19
2023-01-12T12:00:54.106Z,101041.44
2023-01-12T12:03:44.301Z,101038.19
2023-01-12T12:06:33.001Z,101031.53
2023-01-12T12:09:21.605Z,101033.69
2023-01-12T12:12:02.615Z,101022.63
2023-01-12T12:14:42.103Z,101022.59
2023-01-12T12:17:37.147Z,101039.50
2023-01-12T12:20:31.238Z,101031.66
2023-01-12T12:23:30.708Z,101028.25
2023-01-12T12:26:10.084Z,101026.00
2023-01-12T12:29:01.781Z,101030.06
2023-01-12T12:31:43.892Z,101026.19
2023-01-12T12:34:41.488Z,101023.97
2023-01-12T12:37:33.500Z,101017.13
2023-01-12T12:40:12.930Z,101009.00
2023-01-12T12:43:32.476Z,101015.84
2023-01-12T12:46:09.568Z,101011.31
2023-01-12T12:49:10.639Z,101019.63
2023-01-12T12:51:39.137Z,101012.69
2023-01-12T12:54:10.982Z,101001.84
2023-01-12T12:56:39.055Z,100995.66
2023-01-12T12:59:07.318Z,100994.41
2023-01-12T13:01:34.456Z,101000.50
2023-01-12T13:04:03.511Z,100998.38
2023-01-12T13:06:34.305Z,100994.84
2023-01-12T13:09:21.594Z,100996.87
2023-01-12T13:11:59.011Z,100990.59
2023-01-12T13:14:37.906Z,100991.78
2023-01-12T13:17:20.980Z,100994.34
2023-01-12T13:20:00.775Z,100992.94
2023-01-12T13:22:46.025Z,100984.78
2023-01-12T13:25:16.127Z,100988.31
2023-01-12T13:27:57.688Z,100988.06
2023-01-12T13:30:30.827Z,101002.78
2023-01-12T13:33:43.130Z,101006.53
2023-01-12T13:36:10.829Z,100998.59
2023-01-12T13:38:49.678Z,100996.91
2023-01-12T13:41:38.282Z,101010.13
2023-01-12T13:44:08.919Z,101007.97
2023-01-12T13:46:42.432Z,101012.09
2023-01-12T13:49:33.723Z,101015.78
2023-01-12T13:52:04.545Z,101008.09
2023-01-12T13:54:33.650Z,101003.50
2023-01-12T13:57:10.516Z,101000.41
2023-01-12T13:59:38.085Z,101004.41
2023-01-12T14:02:17.038Z,101002.41
2023-01-12T14:05:14.639Z,100999.50
2023-01-12T14:08:13.840Z,100997.59
2023-01-12T14:10:52.608Z,101001.66
2023-01-12T14:13:44.215Z,101001.56
2023-01-12T14:16:33.334Z,100997.97
2023-01-12T14:19:00.513Z,100994.53
2023-01-12T14:21:34.716Z,100998.44
2023-01-12T14:24:23.226Z,101002.47
2023-01-12T14:26:50.946Z,100984.53
2023-01-12T14:29:18.119Z,100977.19
2023-01-12T14:31:49.862Z,100976.91
2023-01-12T14:34:32.426Z,100981.38
2023-01-12T14:37:00.241Z,100979.22
2023-01-12T14:39:30.040Z,100977.19
2023-01-12T14:42:16.187Z,100976.97
2023-01-12T14:45:09.091Z,100988.03
2023-01-12T14:47:36.394Z,100985.44
2023-01-12T14:50:13.076Z,100978.03
2023-01-12T14:52:45.250Z,100977.72
2023-01-12T14:55:18.519Z,100970.88
2023-01-12T14:57:54.987Z,100968.47
2023-01-12T15:00:24.937Z,100968.22
2023-01-12T15:02:54.652Z,100975.53
2023-01-12T15:05:26.773Z,100977.00
2023-01-12T15:08:04.245Z,100979.94
2023-01-12T15:10:33.761Z,100988.09
2023-01-12T15:13:40.339Z,100981.44
2023-01-12T15:16:27.227Z,100975.09
2023-01-12T15:19:13.304Z,100973.00
2023-01-12T15:22:24.287Z,100972.44
2023-01-12T15:25:10.337Z,100974.56
2023-01-12T15:27:40.041Z,100973.94
2023-01-12T15:30:10.295Z,100975.94
2023-01-12T15:32:47.416Z,100980.19
2023-01-12T15:35:17.651Z,100969.09
2023-01-12T15:37:45.174Z,100977.78
2023-01-12T15:40:13.876Z,100977.13
2023-01-12T15:42:41.281Z,100984.97
2023-01-12T15:45:34.586Z,100976.97
2023-01-12T15:48:02.866Z,100982.87
2023-01-12T15:50:30.468Z,100988.22
2023-01-12T15:53:00.161Z,100982.81
2023-01-12T15:55:28.053Z,100988.66
2023-01-12T15:57:55.125Z,100989.63
2023-01-12T16:00:23.965Z,100990.81
2023-01-12T16:02:52.422Z,100990.13
2023-01-12T16:05:22.126Z,100992.06
2023-01-12T16:07:49.351Z,100991.38
2023-01-12T16:10:17.321Z,100992.16
2023-01-12T16:12:45.841Z,100991.28
2023-01-12T16:15:24.042Z,100994.47
2023-01-12T16:17:51.867Z,100993.25
2023-01-12T16:20:20.442Z,100995.78
2023-01-12T16:22:47.872Z,101001.38
2023-01-12T16:25:15.963Z,101003.31
2023-01-12T16:27:45.954Z,100998.44
2023-01-12T16:30:14.923Z,101002.38
2023-01-12T16:32:46.428Z,101002.72
2023-01-12T16:35:15.416Z,101010.59
2023-01-12T16:37:43.476Z,101000.22
2023-01-12T16:40:12.946Z,101000.03
2023-01-12T16:42:40.107Z,101000.03
2023-01-12T16:45:07.877Z,101004.34
2023-01-12T16:47:35.041Z,101001.69
2023-01-12T16:50:03.364Z,101007.81
2023-01-12T16:52:30.925Z,101006.22
2023-01-12T16:54:57.990Z,101010.81
2023-01-12T16:57:25.115Z,101003.41
2023-01-12T16:59:52.550Z,101008.75
2023-01-12T17:02:20.161Z,101007.28
2023-01-12T17:04:49.076Z,101007.44
2023-01-12T17:07:16.587Z,101009.25
2023-01-12T17:09:44.286Z,101005.09
2023-01-12T17:12:11.570Z,101009.41
2023-01-12T17:14:39.112Z,101005.91
2023-01-12T17:17:08.542Z,101007.72
2023-01-12T17:19:37.345Z,101011.06
2023-01-12T17:22:08.606Z,101011.47
2023-01-12T17:24:39.682Z,101006.81
2023-01-12T17:27:08.423Z,101018.03
2023-01-12T17:29:35.929Z,100998.84
2023-01-12T17:32:06.764Z,101003.53
2023-01-12T17:34:37.823Z,101002.84
2023-01-12T17:37:08.883Z,100999.09
2023-01-12T17:39:39.707Z,100994.22
2023-01-12T17:42:25.846Z,101008.00
2023-01-12T17:44:53.269Z,101019.84
2023-01-12T17:47:20.348Z,101012.91
2023-01-12T17:49:47.990Z,101015.59
2023-01-12T17:52:17.082Z,101009.72
2023-01-12T17:54:44.263Z,101006.69
2023-01-12T17:57:11.603Z,101001.81
2023-01-12T17:59:39.280Z,101008.22
2023-01-12T18:02:07.144Z,101002.50
2023-01-12T18:04:34.611Z,101003.00
2023-01-12T18:07:01.708Z,101005.19
2023-01-12T18:09:28.852Z,100999.09
2023-01-12T18:11:56.249Z,101002.31
2023-01-12T18:14:25.017Z,101003.88
2023-01-12T18:16:52.261Z,101005.66
2023-01-12T18:19:19.726Z,101003.84
2023-01-12T18:21:46.833Z,101006.47
2023-01-12T18:24:13.873Z,101007.22
2023-01-12T18:26:41.328Z,101006.28
2023-01-12T18:29:08.467Z,101006.59
2023-01-12T18:31:37.449Z,100996.56
2023-01-12T18:34:05.917Z,101002.94
2023-01-12T18:36:42.307Z,101005.78
2023-01-12T18:39:14.441Z,101001.66
2023-01-12T18:42:00.113Z,101007.19
2023-01-12T18:44:27.599Z,101013.44
2023-01-12T18:47:15.099Z,101015.25
2023-01-12T18:49:46.867Z,101007.75
2023-01-12T18:52:32.553Z,101007.00
2023-01-12T18:54:59.977Z,101007.84
2023-01-12T18:57:29.422Z,101010.47
2023-01-12T19:00:00.406Z,101006.13
2023-01-12T19:02:28.014Z,101005.09
2023-01-12T19:05:16.958Z,101002.78
2023-01-12T19:08:03.698Z,100996.84
2023-01-12T19:10:32.581Z,100996.97
2023-01-12T19:13:18.380Z,100989.66
2023-01-12T19:16:04.297Z,100998.56
2023-01-12T19:18:34.176Z,100996.28
2023-01-12T19:21:21.286Z,100994.69
2023-01-12T19:24:07.081Z,100987.84
2023-01-12T19:26:54.464Z,100991.31
2023-01-12T19:29:21.899Z,100989.56
2023-01-12T19:31:49.079Z,100980.34
2023-01-12T19:34:16.401Z,100982.28
2023-01-12T19:36:43.925Z,100979.06
2023-01-12T19:39:11.335Z,100983.56
2023-01-12T19:41:57.020Z,100972.75
2023-01-12T19:44:24.372Z,100961.81
2023-01-12T19:46:51.492Z,100955.16
2023-01-12T19:49:18.627Z,100962.78
2023-01-12T19:51:46.901Z,100965.38
2023-01-12T19:54:14.648Z,100960.06
2023-01-12T19:56:41.815Z,100964.78
2023-01-12T19:59:09.329Z,100958.22
2023-01-12T20:01:36.587Z,100956.00
2023-01-12T20:04:04.241Z,100952.69
2023-01-12T20:06:31.528Z,100957.00
2023-01-12T20:08:59.131Z,100957.97
2023-01-12T20:11:26.668Z,100960.53
2023-01-12T20:13:53.753Z,100957.31
2023-01-12T20:16:20.945Z,100963.38
2023-01-12T20:18:48.701Z,100973.63
2023-01-12T20:21:15.781Z,100954.03
2023-01-12T20:23:42.993Z,100965.87
2023-01-12T20:26:12.544Z,100966.66
2023-01-12T20:28:39.967Z,100970.06
2023-01-12T20:31:15.449Z,100971.06
2023-01-12T20:33:43.270Z,100971.12
2023-01-12T20:36:15.279Z,100964.22
2023-01-12T20:38:42.953Z,100979.66
2023-01-12T20:41:10.588Z,100982.34
2023-01-12T20:43:37.688Z,100978.00
2023-01-12T20:46:09.496Z,100982.78
2023-01-12T20:48:37.289Z,100985.13
2023-01-12T20:51:11.596Z,100985.78
2023-01-12T20:53:39.175Z,100984.84
2023-01-12T20:56:07.529Z,100984.31
2023-01-12T20:58:35.283Z,100990.44
2023-01-12T21:01:09.002Z,100988.84
2023-01-12T21:03:36.611Z,100988.97
2023-01-12T21:06:11.427Z,100985.59
2023-01-12T21:08:39.890Z,100990.94
2023-01-12T21:11:07.027Z,100982.53
2023-01-12T21:13:34.783Z,100993.66
2023-01-12T21:16:04.092Z,100992.03
2023-01-12T21:18:32.031Z,100994.66
2023-01-12T21:20:59.192Z,100982.84
2023-01-12T21:23:27.494Z,100991.28
2023-01-12T21:25:55.576Z,100991.19
2023-01-12T21:28:23.385Z,100989.41
2023-01-12T21:30:50.806Z,100991.22
2023-01-12T21:33:18.019Z,100988.78
2023-01-12T21:35:54.328Z,100989.66
2023-01-12T21:38:21.818Z,100980.28
2023-01-12T21:40:49.062Z,100988.97
2023-01-12T21:43:18.076Z,100991.53
2023-01-12T21:45:50.676Z,100991.62
2023-01-12T21:48:20.505Z,100981.34
2023-01-12T21:50:48.304Z,100985.50
2023-01-12T21:53:18.119Z,100991.28
2023-01-12T21:55:56.772Z,100979.19
2023-01-12T21:58:25.150Z,100982.53
2023-01-12T22:00:52.579Z,100986.22
2023-01-12T22:03:23.923Z,100987.19
2023-01-12T22:05:51.244Z,100983.75
2023-01-12T22:08:18.735Z,100977.84
2023-01-12T22:10:46.173Z,100966.75
2023-01-12T22:13:15.317Z,100974.53
2023-01-12T22:15:42.946Z,100980.50
2023-01-12T22:18:10.399Z,100983.97
2023-01-12T22:20:38.646Z,100978.84
2023-01-12T22:23:05.848Z,100980.44
2023-01-12T22:25:33.388Z,100973.56
2023-01-12T22:28:00.633Z,100965.00
2023-01-12T22:30:27.915Z,100964.19
2023-01-12T22:32:56.027Z,100965.72
2023-01-12T22:35:26.028Z,100968.13
2023-01-12T22:37:54.681Z,100963.00
2023-01-12T22:40:22.193Z,100961.25
2023-01-12T22:43:08.185Z,100949.19
2023-01-12T22:45:37.515Z,100945.03
2023-01-12T22:48:05.199Z,100935.28
2023-01-12T22:50:32.531Z,100943.84
2023-01-12T22:52:59.892Z,100945.56
2023-01-12T22:55:27.078Z,100939.22
2023-01-12T22:57:54.221Z,100938.25
2023-01-12T23:00:21.860Z,100938.63
2023-01-12T23:03:01.325Z,100941.16
2023-01-12T23:05:36.816Z,100934.53
2023-01-12T23:08:05.753Z,100943.75
2023-01-12T23:10:33.841Z,100937.12
2023-01-12T23:13:20.404Z,100934.53
2023-01-12T23:15:57.588Z,100940.72
2023-01-12T23:18:29.899Z,100939.00
2023-01-12T23:21:25.161Z,100941.03
2023-01-12T23:23:54.412Z,100941.87
2023-01-12T23:26:24.492Z,100951.28
2023-01-12T23:28:55.783Z,100952.78
2023-01-12T23:31:26.405Z,100954.59
2023-01-12T23:33:53.617Z,100956.16
2023-01-12T23:36:23.156Z,100949.47
2023-01-12T23:38:54.671Z,100961.53
2023-01-12T23:41:24.594Z,100962.44
2023-01-12T23:43:52.883Z,100961.59
2023-01-12T23:46:21.975Z,100955.56
2023-01-12T23:48:50.121Z,100964.97
2023-01-12T23:51:17.623Z,100953.84
2023-01-12T23:53:48.732Z,100956.41
2023-01-12T23:56:16.887Z,100950.53
2023-01-12T23:58:44.624Z,100951.44
